createdAt,value
2023-02-20T00:00:23.267Z,13.73
2023-02-20T00:02:52.800Z,14.33
2023-02-20T00:05:22.803Z,13.77
2023-02-20T00:07:53.507Z,16.63
2023-02-20T00:10:24.216Z,14.03
2023-02-20T00:12:54.272Z,15.30
2023-02-20T00:15:24.683Z,12.77
2023-02-20T00:17:54.086Z,14.40
2023-02-20T00:20:25.106Z,14.93
2023-02-20T00:22:55.271Z,12.63
2023-02-20T00:25:24.800Z,12.83
2023-02-20T00:27:54.235Z,14.50
2023-02-20T00:30:25.004Z,13.97
2023-02-20T00:32:56.056Z,12.70
2023-02-20T00:35:26.232Z,11.93
2023-02-20T00:37:56.353Z,12.40
2023-02-20T00:40:27.991Z,12.87
2023-02-20T00:42:57.399Z,10.57
2023-02-20T00:45:26.773Z,11.50
2023-02-20T00:47:56.104Z,11.73
2023-02-20T00:50:25.436Z,10.97
2023-02-20T00:52:54.838Z,10.47
2023-02-20T00:55:24.197Z,11.03
2023-02-20T00:57:53.597Z,13.40
2023-02-20T01:00:24.935Z,10.73
2023-02-20T01:02:54.310Z,10.33
2023-02-20T01:05:23.785Z,11.23
2023-02-20T01:07:54.303Z,10.37
2023-02-20T01:10:23.764Z,12.83
2023-02-20T01:12:53.111Z,12.57
2023-02-20T01:15:22.514Z,9.97
2023-02-20T01:17:51.905Z,13.03
2023-02-20T01:20:21.319Z,10.77
2023-02-20T01:22:50.634Z,10.30
2023-02-20T01:25:20.037Z,11.83
2023-02-20T01:27:49.376Z,11.97
2023-02-20T01:30:19.125Z,12.37
2023-02-20T01:32:49.564Z,13.53
2023-02-20T01:35:19.238Z,14.00
2023-02-20T01:37:48.844Z,13.20
2023-02-20T01:40:22.715Z,14.80
2023-02-20T01:42:52.213Z,14.00
2023-02-20T01:45:24.550Z,10.30
2023-02-20T01:47:58.610Z,13.43
2023-02-20T01:50:30.060Z,11.47
2023-02-20T01:53:01.656Z,13.33
2023-02-20T01:55:35.489Z,14.13
2023-02-20T01:58:11.705Z,11.57
2023-02-20T02:00:41.317Z,13.33
2023-02-20T02:03:14.117Z,12.40
2023-02-20T02:05:44.902Z,13.57
2023-02-20T02:08:15.488Z,15.13
2023-02-20T02:10:57.034Z,11.73
2023-02-20T02:13:26.371Z,12.67
2023-02-20T02:15:56.791Z,16.07
2023-02-20T02:18:55.194Z,14.87
2023-02-20T02:21:36.981Z,13.77
2023-02-20T02:24:26.295Z,11.97
2023-02-20T02:27:04.873Z,16.27
2023-02-20T02:29:43.004Z,15.40
2023-02-20T02:32:24.300Z,16.43
2023-02-20T02:35:16.787Z,15.43
2023-02-20T02:38:05.015Z,16.80
2023-02-20T02:40:44.493Z,16.13
2023-02-20T02:43:22.987Z,16.63
2023-02-20T02:46:00.096Z,16.93
2023-02-20T02:48:32.346Z,19.10
2023-02-20T02:51:08.569Z,15.97
2023-02-20T02:53:37.936Z,14.37
2023-02-20T02:56:22.571Z,19.53
2023-02-20T02:58:53.261Z,19.27
2023-02-20T03:01:23.489Z,18.37
2023-02-20T03:03:54.416Z,21.57
2023-02-20T03:06:29.106Z,19.07
2023-02-20T03:09:07.696Z,21.53
2023-02-20T03:11:37.971Z,16.43
2023-02-20T03:14:48.921Z,19.87
2023-02-20T03:17:26.502Z,16.27
2023-02-20T03:19:56.297Z,16.17
2023-02-20T03:22:31.956Z,17.97
2023-02-20T03:25:11.387Z,20.60
2023-02-20T03:27:40.895Z,15.90
2023-02-20T03:30:13.350Z,18.93
2023-02-20T03:33:02.335Z,16.23
2023-02-20T03:35:51.560Z,17.47
2023-02-20T03:38:39.969Z,19.03
2023-02-20T03:41:29.658Z,20.70
2023-02-20T03:43:59.739Z,17.00
2023-02-20T03:46:30.659Z,17.50
2023-02-20T03:49:02.644Z,19.70
2023-02-20T03:51:32.011Z,21.07
2023-02-20T03:54:02.084Z,19.97
2023-02-20T03:56:34.343Z,16.67
2023-02-20T03:59:16.546Z,20.97
2023-02-20T04:01:47.861Z,17.37
2023-02-20T04:04:21.345Z,20.90
2023-02-20T04:06:51.763Z,18.80
2023-02-20T04:09:23.849Z,19.27
2023-02-20T04:11:56.797Z,18.37
2023-02-20T04:14:27.655Z,16.90
2023-02-20T04:16:59.151Z,17.63
2023-02-20T04:19:28.524Z,17.07
2023-02-20T04:21:59.245Z,21.90
2023-02-20T04:24:34.540Z,19.43
2023-02-20T04:27:03.914Z,20.10
2023-02-20T04:29:33.316Z,17.07
2023-02-20T04:32:02.718Z,23.20
2023-02-20T04:34:33.957Z,21.30
2023-02-20T04:37:13.799Z,24.40
2023-02-20T04:39:43.222Z,19.87
2023-02-20T04:42:12.570Z,22.30
2023-02-20T04:44:43.245Z,18.67
2023-02-20T04:47:20.569Z,18.83
2023-02-20T04:49:49.910Z,19.80
2023-02-20T04:52:20.868Z,22.07
2023-02-20T04:54:50.455Z,21.70
2023-02-20T04:57:20.243Z,22.20
2023-02-20T04:59:49.623Z,19.70
2023-02-20T05:02:19.062Z,21.23
2023-02-20T05:04:48.739Z,24.77
2023-02-20T05:07:19.860Z,24.30
2023-02-20T05:09:49.276Z,20.43
2023-02-20T05:12:18.558Z,22.20
2023-02-20T05:14:47.893Z,25.00
2023-02-20T05:17:17.386Z,28.47
2023-02-20T05:19:46.740Z,24.70
2023-02-20T05:22:18.927Z,25.00
2023-02-20T05:24:49.386Z,24.73
2023-02-20T05:27:20.259Z,26.33
2023-02-20T05:29:49.621Z,24.40
2023-02-20T05:32:19.673Z,24.07
2023-02-20T05:34:49.547Z,27.43
2023-02-20T05:37:19.612Z,23.73
2023-02-20T05:39:49.398Z,25.27
2023-02-20T05:42:19.340Z,23.73
2023-02-20T05:44:49.673Z,24.00
2023-02-20T05:47:19.483Z,24.80
2023-02-20T05:49:49.186Z,27.47
2023-02-20T05:52:18.729Z,24.80
2023-02-20T05:54:49.046Z,20.87
2023-02-20T05:57:18.382Z,26.83
2023-02-20T05:59:47.724Z,20.53
2023-02-20T06:02:19.113Z,23.07
2023-02-20T06:04:48.561Z,23.70
2023-02-20T06:07:17.896Z,24.80
2023-02-20T06:09:47.899Z,25.93
2023-02-20T06:12:17.262Z,23.13
2023-02-20T06:14:46.605Z,24.47
2023-02-20T06:17:16.002Z,22.27
2023-02-20T06:19:45.411Z,22.90
2023-02-20T06:22:14.746Z,24.53
2023-02-20T06:24:47.510Z,23.93
2023-02-20T06:27:17.911Z,29.43
2023-02-20T06:29:49.954Z,24.60
2023-02-20T06:32:19.732Z,28.50
2023-02-20T06:34:49.387Z,26.90
2023-02-20T06:37:18.936Z,22.77
2023-02-20T06:39:49.402Z,24.20
2023-02-20T06:42:19.424Z,31.67
2023-02-20T06:44:48.788Z,30.50
2023-02-20T06:47:18.510Z,26.43
2023-02-20T06:49:47.931Z,27.03
2023-02-20T06:52:17.271Z,27.53
2023-02-20T06:54:46.829Z,23.30
2023-02-20T06:57:16.655Z,30.17
2023-02-20T06:59:49.703Z,28.97
2023-02-20T07:02:19.916Z,30.00
2023-02-20T07:04:52.583Z,30.57
2023-02-20T07:07:21.958Z,26.50
2023-02-20T07:09:51.267Z,29.43
2023-02-20T07:12:21.704Z,26.07
2023-02-20T07:14:53.430Z,24.47
2023-02-20T07:17:22.722Z,29.80
2023-02-20T07:19:52.004Z,28.53
2023-02-20T07:22:21.347Z,26.87
2023-02-20T07:24:54.687Z,24.10
2023-02-20T07:27:23.999Z,25.70
2023-02-20T07:29:53.780Z,22.60
2023-02-20T07:32:23.534Z,26.80
2023-02-20T07:35:03.329Z,29.33
2023-02-20T07:37:34.160Z,28.40
2023-02-20T07:40:03.527Z,29.77
2023-02-20T07:42:32.832Z,30.83
2023-02-20T07:45:02.304Z,29.30
2023-02-20T07:47:31.580Z,26.93
2023-02-20T07:50:01.508Z,26.27
2023-02-20T07:52:30.793Z,31.00
2023-02-20T07:55:00.147Z,27.87
2023-02-20T07:57:29.724Z,26.87
2023-02-20T07:59:59.072Z,24.17
2023-02-20T08:02:28.437Z,31.17
2023-02-20T08:04:57.745Z,28.23
2023-02-20T08:07:27.081Z,26.87
2023-02-20T08:09:56.456Z,26.87
2023-02-20T08:12:25.986Z,25.60
2023-02-20T08:14:55.595Z,26.13
2023-02-20T08:17:29.673Z,25.77
2023-02-20T08:20:03.838Z,25.73
2023-02-20T08:22:41.346Z,26.03
2023-02-20T08:25:11.071Z,25.67
2023-02-20T08:27:40.412Z,26.33
2023-02-20T08:30:10.012Z,28.90
2023-02-20T08:32:39.591Z,24.67
2023-02-20T08:35:09.463Z,27.90
2023-02-20T08:37:38.887Z,24.73
2023-02-20T08:40:08.830Z,25.97
2023-02-20T08:42:38.232Z,27.73
2023-02-20T08:45:08.424Z,31.37
2023-02-20T08:47:37.870Z,27.27
2023-02-20T08:50:07.439Z,30.47
2023-02-20T08:52:36.769Z,30.03
2023-02-20T08:55:06.186Z,28.30
2023-02-20T08:57:35.551Z,28.23
2023-02-20T09:00:04.914Z,27.30
2023-02-20T09:02:34.340Z,29.43
2023-02-20T09:05:04.579Z,26.00
2023-02-20T09:07:34.171Z,27.60
2023-02-20T09:10:03.592Z,29.13
2023-02-20T09:12:33.416Z,30.03
2023-02-20T09:15:02.887Z,27.57
2023-02-20T09:17:32.676Z,28.70
2023-02-20T09:20:02.080Z,30.13
2023-02-20T09:22:31.689Z,29.50
2023-02-20T09:25:01.216Z,27.53
2023-02-20T09:27:30.631Z,29.80
2023-02-20T09:29:57.696Z,34.73
2023-02-20T09:32:25.062Z,26.97
2023-02-20T09:34:52.189Z,24.50
2023-02-20T09:37:19.363Z,27.60
2023-02-20T09:39:46.436Z,27.23
2023-02-20T09:42:13.578Z,31.73
2023-02-20T09:45:03.457Z,30.20
2023-02-20T09:47:50.543Z,26.07
2023-02-20T09:50:35.986Z,28.43
2023-02-20T09:53:38.059Z,23.97
2023-02-20T09:56:26.926Z,28.07
2023-02-20T09:59:18.206Z,27.10
2023-02-20T10:02:28.764Z,25.43
2023-02-20T10:05:20.032Z,29.80
2023-02-20T10:08:13.935Z,26.57
2023-02-20T10:11:10.172Z,28.47
2023-02-20T10:14:20.519Z,30.33
2023-02-20T10:17:40.213Z,31.57
2023-02-20T10:20:45.096Z,18.93
2023-02-20T10:24:04.942Z,30.90
2023-02-20T10:27:08.606Z,21.50
2023-02-20T10:30:09.223Z,23.97
2023-02-20T10:33:05.595Z,24.80
2023-02-20T10:36:20.530Z,23.20
2023-02-20T10:39:35.564Z,26.17
2023-02-20T10:42:40.771Z,22.90
2023-02-20T10:45:48.573Z,23.90
2023-02-20T10:48:45.410Z,25.27
2023-02-20T10:51:41.155Z,23.50
2023-02-20T10:54:34.740Z,24.00
2023-02-20T10:57:35.184Z,23.23
2023-02-20T11:00:35.573Z,22.97
2023-02-20T11:03:48.316Z,26.60
2023-02-20T11:06:41.916Z,21.63
2023-02-20T11:09:31.057Z,24.10
2023-02-20T11:12:20.620Z,20.80
2023-02-20T11:15:11.837Z,23.30
2023-02-20T11:18:04.844Z,20.50
2023-02-20T11:21:06.526Z,26.20
2023-02-20T11:24:12.080Z,24.70
2023-02-20T11:27:09.205Z,22.13
2023-02-20T11:30:18.186Z,23.43
2023-02-20T11:33:29.134Z,25.93
2023-02-20T11:36:49.741Z,26.23
2023-02-20T11:40:00.449Z,23.47
2023-02-20T11:43:12.425Z,24.63
2023-02-20T11:46:16.989Z,22.53
2023-02-20T11:49:31.581Z,22.93
2023-02-20T11:52:35.987Z,27.27
2023-02-20T11:55:59.873Z,23.17
2023-02-20T11:59:02.859Z,23.43
2023-02-20T12:02:01.349Z,20.77
2023-02-20T12:04:55.336Z,25.33
2023-02-20T12:08:05.932Z,21.93
2023-02-20T12:11:10.127Z,22.60
2023-02-20T12:14:10.238Z,22.27
2023-02-20T12:17:24.611Z,21.90
2023-02-20T12:20:26.215Z,20.03
2023-02-20T12:23:19.731Z,21.37
2023-02-20T12:26:21.248Z,21.03
2023-02-20T12:29:37.121Z,21.23
2023-02-20T12:32:42.236Z,27.37
2023-02-20T12:36:09.250Z,21.73
2023-02-20T12:39:26.232Z,22.73
2023-02-20T12:42:10.777Z,21.60
2023-02-20T12:44:44.409Z,22.27
2023-02-20T12:47:37.116Z,19.90
2023-02-20T12:50:26.055Z,27.17
2023-02-20T12:53:01.301Z,24.37
2023-02-20T12:55:36.749Z,22.57
2023-02-20T12:58:12.506Z,21.03
2023-02-20T13:00:41.879Z,20.60
2023-02-20T13:03:16.041Z,21.07
2023-02-20T13:05:46.354Z,23.23
2023-02-20T13:08:21.041Z,19.60
2023-02-20T13:10:54.914Z,26.47
2023-02-20T13:13:24.553Z,21.40
2023-02-20T13:15:59.577Z,19.77
2023-02-20T13:18:28.838Z,22.90
2023-02-20T13:21:00.122Z,23.60
2023-02-20T13:23:31.330Z,22.37
2023-02-20T13:26:00.805Z,27.00
2023-02-20T13:28:37.490Z,23.20
2023-02-20T13:31:11.220Z,24.80
2023-02-20T13:33:41.030Z,20.40
2023-02-20T13:36:19.578Z,24.00
2023-02-20T13:39:07.598Z,25.47
2023-02-20T13:41:55.615Z,21.33
2023-02-20T13:44:31.110Z,28.97
2023-02-20T13:47:10.571Z,22.67
2023-02-20T13:49:49.432Z,19.27
2023-02-20T13:52:37.375Z,20.70
2023-02-20T13:55:16.090Z,21.23
2023-02-20T13:57:55.983Z,23.37
2023-02-20T14:00:25.200Z,24.20
2023-02-20T14:02:55.157Z,22.30
2023-02-20T14:05:26.402Z,20.80
2023-02-20T14:07:55.856Z,22.30
2023-02-20T14:10:28.268Z,21.33
2023-02-20T14:13:00.101Z,23.60
2023-02-20T14:15:29.455Z,22.00
2023-02-20T14:17:59.630Z,25.23
2023-02-20T14:20:35.978Z,21.33
2023-02-20T14:23:09.431Z,26.57
2023-02-20T14:25:39.994Z,20.17
2023-02-20T14:28:10.476Z,23.03
2023-02-20T14:30:39.887Z,26.93
2023-02-20T14:33:18.552Z,24.80
2023-02-20T14:35:47.770Z,24.63
2023-02-20T14:38:26.679Z,19.50
2023-02-20T14:40:56.093Z,21.67
2023-02-20T14:43:27.511Z,25.47
2023-02-20T14:46:03.042Z,23.47
2023-02-20T14:48:34.166Z,24.40
2023-02-20T14:51:22.025Z,25.40
2023-02-20T14:53:59.995Z,25.23
2023-02-20T14:56:29.492Z,22.07
2023-02-20T14:58:59.504Z,22.93
2023-02-20T15:01:39.926Z,23.90
2023-02-20T15:04:10.957Z,26.10
2023-02-20T15:06:41.626Z,22.70
2023-02-20T15:09:22.052Z,23.43
2023-02-20T15:11:58.154Z,25.37
2023-02-20T15:14:29.239Z,26.40
2023-02-20T15:17:17.380Z,24.77
2023-02-20T15:19:46.754Z,26.00
2023-02-20T15:22:32.887Z,28.10
2023-02-20T15:25:16.255Z,27.50
2023-02-20T15:28:05.530Z,25.97
2023-02-20T15:30:34.909Z,27.27
2023-02-20T15:33:04.668Z,31.87
2023-02-20T15:35:34.258Z,32.93
2023-02-20T15:38:04.991Z,30.37
2023-02-20T15:40:36.403Z,26.57
2023-02-20T15:43:23.798Z,28.57
2023-02-20T15:45:55.340Z,29.07
2023-02-20T15:48:24.678Z,31.20
2023-02-20T15:50:54.017Z,30.53
2023-02-20T15:53:25.560Z,29.27
2023-02-20T15:55:55.746Z,31.37
2023-02-20T15:58:39.884Z,32.17
2023-02-20T16:01:09.391Z,31.53
2023-02-20T16:03:51.052Z,33.97
2023-02-20T16:06:21.540Z,34.87
2023-02-20T16:08:51.015Z,36.23
2023-02-20T16:11:21.681Z,31.37
2023-02-20T16:13:52.026Z,35.77
2023-02-20T16:16:24.767Z,33.40
2023-02-20T16:18:55.259Z,34.03
2023-02-20T16:21:25.292Z,33.97
2023-02-20T16:23:54.995Z,40.40
2023-02-20T16:26:26.303Z,40.10
2023-02-20T16:29:18.741Z,37.43
2023-02-20T16:32:03.441Z,40.83
2023-02-20T16:34:33.620Z,37.87
2023-02-20T16:37:03.617Z,38.10
2023-02-20T16:39:32.813Z,37.00
2023-02-20T16:42:02.182Z,37.87
2023-02-20T16:44:40.137Z,37.33
2023-02-20T16:47:12.318Z,37.70
2023-02-20T16:49:41.417Z,37.50
2023-02-20T16:52:17.885Z,39.10
2023-02-20T16:54:49.357Z,38.27
2023-02-20T16:57:21.492Z,34.80
2023-02-20T16:59:50.938Z,38.43
2023-02-20T17:02:21.470Z,36.33
2023-02-20T17:04:51.211Z,35.93
2023-02-20T17:07:20.736Z,38.87
2023-02-20T17:09:50.041Z,47.53
2023-02-20T17:12:22.209Z,36.57
2023-02-20T17:14:53.361Z,39.20
2023-02-20T17:17:22.832Z,36.77
2023-02-20T17:19:53.003Z,35.20
2023-02-20T17:22:22.557Z,33.57
2023-02-20T17:24:51.668Z,34.10
2023-02-20T17:27:21.216Z,32.67
2023-02-20T17:29:50.628Z,34.97
2023-02-20T17:32:19.592Z,35.40
2023-02-20T17:34:48.640Z,33.27
2023-02-20T17:37:18.257Z,37.70
2023-02-20T17:39:47.267Z,34.37
2023-02-20T17:42:16.273Z,36.97
2023-02-20T17:44:45.284Z,33.00
2023-02-20T17:47:15.124Z,34.30
2023-02-20T17:49:44.066Z,37.83
2023-02-20T17:52:13.114Z,34.00
2023-02-20T17:54:46.695Z,33.37
2023-02-20T17:57:16.117Z,41.87
2023-02-20T17:59:45.066Z,42.23
2023-02-20T18:02:15.110Z,42.73
2023-02-20T18:04:44.363Z,42.33
2023-02-20T18:07:14.113Z,47.63
2023-02-20T18:09:43.122Z,39.90
2023-02-20T18:12:12.227Z,39.30
2023-02-20T18:14:41.563Z,47.40
2023-02-20T18:17:10.581Z,39.07
2023-02-20T18:19:39.573Z,39.30
2023-02-20T18:22:08.611Z,42.40
2023-02-20T18:24:37.930Z,47.87
2023-02-20T18:27:07.147Z,43.00
2023-02-20T18:29:36.224Z,40.67
2023-02-20T18:32:05.495Z,44.87
2023-02-20T18:34:34.660Z,40.87
2023-02-20T18:37:03.810Z,43.57
2023-02-20T18:39:32.977Z,41.57
2023-02-20T18:42:02.099Z,44.90
2023-02-20T18:44:31.239Z,43.07
2023-02-20T18:47:02.369Z,39.80
2023-02-20T18:49:31.474Z,43.17
2023-02-20T18:52:00.568Z,45.33
2023-02-20T18:54:32.980Z,40.00
2023-02-20T18:57:03.281Z,36.10
2023-02-20T18:59:32.481Z,39.13
2023-02-20T19:02:06.054Z,41.33
2023-02-20T19:04:35.567Z,41.87
2023-02-20T19:07:05.961Z,41.60
2023-02-20T19:09:38.087Z,37.83
2023-02-20T19:12:08.378Z,43.80
2023-02-20T19:14:37.962Z,43.93
2023-02-20T19:17:07.834Z,38.33
2023-02-20T19:19:37.061Z,39.83
2023-02-20T19:22:06.497Z,41.37
2023-02-20T19:24:40.233Z,43.47
2023-02-20T19:27:11.085Z,58.77
2023-02-20T19:29:42.245Z,40.20
2023-02-20T19:32:12.060Z,48.63
2023-02-20T19:34:41.266Z,35.60
2023-02-20T19:37:10.473Z,34.23
2023-02-20T19:39:39.702Z,35.33
2023-02-20T19:42:09.255Z,33.60
2023-02-20T19:44:40.253Z,36.90
2023-02-20T19:47:09.524Z,36.67
2023-02-20T19:49:38.873Z,42.43
2023-02-20T19:52:08.044Z,37.27
2023-02-20T19:54:37.298Z,40.57
2023-02-20T19:57:09.707Z,40.13
2023-02-20T19:59:39.729Z,42.50
2023-02-20T20:02:10.323Z,69.93
2023-02-20T20:04:39.627Z,45.57
2023-02-20T20:07:09.097Z,46.03
2023-02-20T20:09:38.520Z,45.67
2023-02-20T20:12:27.419Z,43.73
2023-02-20T20:14:57.188Z,43.27
2023-02-20T20:17:26.343Z,47.73
2023-02-20T20:19:59.774Z,44.97
2023-02-20T20:22:30.608Z,44.37
2023-02-20T20:25:00.500Z,51.80
2023-02-20T20:27:29.696Z,46.87
2023-02-20T20:29:59.000Z,44.93
2023-02-20T20:32:28.330Z,44.23
2023-02-20T20:34:57.679Z,45.57
2023-02-20T20:37:27.669Z,47.27
2023-02-20T20:39:58.910Z,50.20
2023-02-20T20:42:29.122Z,45.73
2023-02-20T20:44:59.487Z,45.67
2023-02-20T20:47:29.971Z,51.47
2023-02-20T20:49:59.642Z,48.00
2023-02-20T20:52:30.882Z,54.77
2023-02-20T20:55:01.287Z,44.00
2023-02-20T20:57:32.219Z,42.07
2023-02-20T21:00:01.577Z,48.40
2023-02-20T21:02:31.178Z,47.70
2023-02-20T21:05:09.839Z,46.97
2023-02-20T21:07:39.801Z,49.70
2023-02-20T21:10:09.383Z,47.60
2023-02-20T21:12:38.739Z,46.53
2023-02-20T21:15:08.889Z,47.73
2023-02-20T21:17:38.140Z,44.33
2023-02-20T21:20:09.186Z,43.93
2023-02-20T21:22:38.512Z,45.77
2023-02-20T21:25:07.898Z,45.33
2023-02-20T21:27:37.156Z,42.13
2023-02-20T21:30:06.869Z,45.00
2023-02-20T21:32:36.183Z,45.80
2023-02-20T21:35:05.480Z,43.90
2023-02-20T21:37:34.750Z,44.77
2023-02-20T21:40:04.114Z,46.37
2023-02-20T21:42:51.980Z,45.83
2023-02-20T21:45:21.527Z,41.60
2023-02-20T21:47:50.837Z,45.03
2023-02-20T21:50:20.907Z,42.50
2023-02-20T21:52:50.483Z,42.00
2023-02-20T21:55:20.299Z,44.17
2023-02-20T21:57:49.611Z,39.07
2023-02-20T22:00:18.913Z,43.70
2023-02-20T22:02:48.100Z,39.43
2023-02-20T22:05:17.441Z,38.97
2023-02-20T22:08:05.437Z,46.13
2023-02-20T22:10:53.397Z,42.20
2023-02-20T22:13:41.401Z,43.30
2023-02-20T22:16:29.451Z,40.60
2023-02-20T22:19:17.542Z,42.23
2023-02-20T22:22:05.681Z,42.50
2023-02-20T22:24:55.748Z,38.07
2023-02-20T22:27:43.700Z,42.23
2023-02-20T22:30:32.116Z,43.17
2023-02-20T22:33:20.047Z,41.73
2023-02-20T22:36:08.141Z,45.13
2023-02-20T22:38:56.208Z,42.97
2023-02-20T22:41:44.277Z,44.77
2023-02-20T22:44:32.483Z,44.07
2023-02-20T22:47:20.616Z,41.43
2023-02-20T22:50:08.655Z,43.73
2023-02-20T22:52:56.692Z,39.97
2023-02-20T22:55:44.968Z,43.87
2023-02-20T22:58:32.781Z,39.97
2023-02-20T23:01:20.809Z,48.77
2023-02-20T23:04:08.875Z,46.47
2023-02-20T23:06:56.899Z,41.37
2023-02-20T23:09:44.828Z,44.53
2023-02-20T23:12:33.915Z,43.50
2023-02-20T23:15:21.887Z,43.67
2023-02-20T23:18:10.070Z,44.80
2023-02-20T23:20:58.179Z,45.87
2023-02-20T23:23:45.976Z,43.53
2023-02-20T23:26:34.256Z,44.07
2023-02-20T23:29:22.051Z,42.80
2023-02-20T23:32:10.436Z,47.77
2023-02-20T23:34:58.709Z,48.03
2023-02-20T23:37:46.766Z,51.17
2023-02-20T23:40:37.035Z,47.07
2023-02-20T23:43:26.498Z,45.57
2023-02-20T23:46:15.099Z,42.30
2023-02-20T23:49:03.242Z,45.53
2023-02-20T23:51:52.802Z,43.73
2023-02-20T23:54:40.890Z,45.17
2023-02-20T23:57:29.010Z,46.53
